LL52 weather

Wilts Airport
Streator, Illinois, United States

Public forecast

Using degrees Fahrenheit for public forecast. Weather courtesy of forecast.io.

Closest aviation weather report (METAR) to Wilts Airport

Closest report is Illinois Valley Regional Airport-Walter A Duncan Field, 15.0 nm (27.8 km) NW. Retrieved 2020/08/06 21:35 UTC (0 seconds ago):

KVYS 062135Z AUTO 22005KT 10SM CLR 27/14 A3011 RMK AO2 T02650138

Closest aviation forecast (TAF) to Wilts Airport

Closest forecast is Central Illinois Regional Airport at Bloomington-Normal, 41.1 nm (76.1 km) S. Retrieved 2020/08/06 18:22 UTC (3 hours ago):

TAF KBMI 061720Z 0618/0718 10003KT P6SM SCT060 FM071400 14005KT P6SM SCT150